sensor_id;sensor_type;location;lat;lon;timestamp;P1;durP1;ratioP1;P2;durP2;ratioP2
28481;SDS011;15703;49.588;6.260;2022-07-23T00:02:06;18.75;;;16.77;;
28481;SDS011;15703;49.588;6.260;2022-07-23T00:04:29;21.17;;;16.70;;
28481;SDS011;15703;49.588;6.260;2022-07-23T00:06:51;18.58;;;16.77;;
28481;SDS011;15703;49.588;6.260;2022-07-23T00:09:13;18.52;;;16.58;;
28481;SDS011;15703;49.588;6.260;2022-07-23T00:11:36;19.25;;;16.83;;
28481;SDS011;15703;49.588;6.260;2022-07-23T00:13:58;18.10;;;16.25;;
28481;SDS011;15703;49.588;6.260;2022-07-23T00:16:21;18.80;;;16.33;;
28481;SDS011;15703;49.588;6.260;2022-07-23T00:18:43;17.98;;;16.17;;
28481;SDS011;15703;49.588;6.260;2022-07-23T00:21:05;17.90;;;16.05;;
28481;SDS011;15703;49.588;6.260;2022-07-23T00:23:29;17.30;;;15.60;;
28481;SDS011;15703;49.588;6.260;2022-07-23T00:25:52;17.52;;;15.73;;
28481;SDS011;15703;49.588;6.260;2022-07-23T00:28:14;18.02;;;15.73;;
28481;SDS011;15703;49.588;6.260;2022-07-23T00:30:36;17.25;;;15.60;;
28481;SDS011;15703;49.588;6.260;2022-07-23T00:33:00;17.90;;;15.77;;
28481;SDS011;15703;49.588;6.260;2022-07-23T00:35:23;18.23;;;16.33;;
28481;SDS011;15703;49.588;6.260;2022-07-23T00:37:46;19.52;;;17.55;;
28481;SDS011;15703;49.588;6.260;2022-07-23T00:40:11;21.27;;;19.25;;
28481;SDS011;15703;49.588;6.260;2022-07-23T00:42:34;22.15;;;19.85;;
28481;SDS011;15703;49.588;6.260;2022-07-23T00:44:56;22.38;;;19.92;;
28481;SDS011;15703;49.588;6.260;2022-07-23T00:47:18;20.83;;;18.65;;
28481;SDS011;15703;49.588;6.260;2022-07-23T00:49:41;21.20;;;19.02;;
28481;SDS011;15703;49.588;6.260;2022-07-23T00:52:03;20.70;;;18.52;;
28481;SDS011;15703;49.588;6.260;2022-07-23T00:54:28;22.65;;;19.77;;
28481;SDS011;15703;49.588;6.260;2022-07-23T00:56:51;21.83;;;19.20;;
28481;SDS011;15703;49.588;6.260;2022-07-23T00:59:13;20.90;;;18.70;;
28481;SDS011;15703;49.588;6.260;2022-07-23T01:01:36;20.42;;;18.23;;
28481;SDS011;15703;49.588;6.260;2022-07-23T01:03:59;22.00;;;19.73;;
28481;SDS011;15703;49.588;6.260;2022-07-23T01:06:21;21.15;;;18.90;;
28481;SDS011;15703;49.588;6.260;2022-07-23T01:08:44;19.98;;;18.00;;
28481;SDS011;15703;49.588;6.260;2022-07-23T01:11:06;20.95;;;18.83;;
28481;SDS011;15703;49.588;6.260;2022-07-23T01:13:29;22.65;;;19.33;;
28481;SDS011;15703;49.588;6.260;2022-07-23T01:15:51;20.92;;;18.83;;
28481;SDS011;15703;49.588;6.260;2022-07-23T01:18:14;21.52;;;19.25;;
28481;SDS011;15703;49.588;6.260;2022-07-23T01:20:36;22.30;;;19.80;;
28481;SDS011;15703;49.588;6.260;2022-07-23T01:23:01;22.95;;;20.55;;
28481;SDS011;15703;49.588;6.260;2022-07-23T01:25:24;22.92;;;20.52;;
28481;SDS011;15703;49.588;6.260;2022-07-23T01:27:57;22.90;;;20.48;;
28481;SDS011;15703;49.588;6.260;2022-07-23T01:30:19;23.52;;;20.73;;
28481;SDS011;15703;49.588;6.260;2022-07-23T01:32:42;23.95;;;21.38;;
28481;SDS011;15703;49.588;6.260;2022-07-23T01:35:05;23.63;;;21.00;;
28481;SDS011;15703;49.588;6.260;2022-07-23T01:37:28;24.13;;;21.60;;
28481;SDS011;15703;49.588;6.260;2022-07-23T01:39:50;28.00;;;22.40;;
28481;SDS011;15703;49.588;6.260;2022-07-23T01:42:13;23.55;;;20.75;;
28481;SDS011;15703;49.588;6.260;2022-07-23T01:44:36;23.45;;;20.75;;
28481;SDS011;15703;49.588;6.260;2022-07-23T01:46:59;23.20;;;20.70;;
28481;SDS011;15703;49.588;6.260;2022-07-23T01:49:22;24.40;;;21.35;;
28481;SDS011;15703;49.588;6.260;2022-07-23T01:51:53;22.17;;;19.80;;
28481;SDS011;15703;49.588;6.260;2022-07-23T01:54:48;23.63;;;21.13;;
28481;SDS011;15703;49.588;6.260;2022-07-23T01:57:11;22.77;;;20.40;;
28481;SDS011;15703;49.588;6.260;2022-07-23T01:59:33;24.38;;;21.77;;
28481;SDS011;15703;49.588;6.260;2022-07-23T02:01:56;23.75;;;20.92;;
28481;SDS011;15703;49.588;6.260;2022-07-23T02:04:22;22.92;;;20.52;;
28481;SDS011;15703;49.588;6.260;2022-07-23T02:06:45;23.92;;;21.35;;
28481;SDS011;15703;49.588;6.260;2022-07-23T02:09:07;24.52;;;21.67;;
28481;SDS011;15703;49.588;6.260;2022-07-23T02:11:30;23.05;;;20.63;;
28481;SDS011;15703;49.588;6.260;2022-07-23T02:13:52;23.70;;;20.90;;
28481;SDS011;15703;49.588;6.260;2022-07-23T02:16:15;23.38;;;20.50;;
28481;SDS011;15703;49.588;6.260;2022-07-23T02:18:37;23.80;;;20.63;;
28481;SDS011;15703;49.588;6.260;2022-07-23T02:21:00;22.63;;;20.35;;
28481;SDS011;15703;49.588;6.260;2022-07-23T02:23:26;24.13;;;19.85;;
28481;SDS011;15703;49.588;6.260;2022-07-23T02:25:48;27.95;;;23.08;;
28481;SDS011;15703;49.588;6.260;2022-07-23T02:28:10;24.70;;;21.85;;
28481;SDS011;15703;49.588;6.260;2022-07-23T02:30:35;22.67;;;20.25;;
28481;SDS011;15703;49.588;6.260;2022-07-23T02:32:59;26.63;;;20.95;;
28481;SDS011;15703;49.588;6.260;2022-07-23T02:35:22;28.58;;;23.23;;
28481;SDS011;15703;49.588;6.260;2022-07-23T02:37:44;24.77;;;21.30;;
28481;SDS011;15703;49.588;6.260;2022-07-23T02:40:08;27.15;;;22.17;;
28481;SDS011;15703;49.588;6.260;2022-07-23T02:42:33;24.77;;;21.63;;
28481;SDS011;15703;49.588;6.260;2022-07-23T02:44:55;23.90;;;20.75;;
28481;SDS011;15703;49.588;6.260;2022-07-23T02:47:18;23.50;;;20.95;;
28481;SDS011;15703;49.588;6.260;2022-07-23T02:49:40;24.65;;;20.52;;
28481;SDS011;15703;49.588;6.260;2022-07-23T02:52:02;23.55;;;21.23;;
28481;SDS011;15703;49.588;6.260;2022-07-23T02:54:25;24.13;;;20.67;;
28481;SDS011;15703;49.588;6.260;2022-07-23T02:56:47;26.08;;;21.67;;
28481;SDS011;15703;49.588;6.260;2022-07-23T02:59:11;24.77;;;20.52;;
28481;SDS011;15703;49.588;6.260;2022-07-23T03:01:34;26.38;;;21.85;;
28481;SDS011;15703;49.588;6.260;2022-07-23T03:03:56;25.98;;;21.38;;
28481;SDS011;15703;49.588;6.260;2022-07-23T03:06:19;24.75;;;21.52;;
28481;SDS011;15703;49.588;6.260;2022-07-23T03:08:43;24.48;;;21.77;;
28481;SDS011;15703;49.588;6.260;2022-07-23T03:11:06;22.15;;;19.65;;
28481;SDS011;15703;49.588;6.260;2022-07-23T03:13:37;22.90;;;19.95;;
28481;SDS011;15703;49.588;6.260;2022-07-23T03:16:00;25.60;;;21.75;;
28481;SDS011;15703;49.588;6.260;2022-07-23T03:18:23;24.13;;;20.17;;
28481;SDS011;15703;49.588;6.260;2022-07-23T03:20:45;26.05;;;22.88;;
28481;SDS011;15703;49.588;6.260;2022-07-23T03:23:07;22.95;;;20.55;;
28481;SDS011;15703;49.588;6.260;2022-07-23T03:25:31;25.05;;;22.27;;
28481;SDS011;15703;49.588;6.260;2022-07-23T03:27:53;25.70;;;21.65;;
28481;SDS011;15703;49.588;6.260;2022-07-23T03:30:16;26.50;;;21.90;;
28481;SDS011;15703;49.588;6.260;2022-07-23T03:32:38;27.80;;;24.25;;
28481;SDS011;15703;49.588;6.260;2022-07-23T03:35:00;28.35;;;22.73;;
28481;SDS011;15703;49.588;6.260;2022-07-23T03:37:23;28.77;;;23.05;;
28481;SDS011;15703;49.588;6.260;2022-07-23T03:39:46;29.33;;;23.65;;
28481;SDS011;15703;49.588;6.260;2022-07-23T03:42:08;27.42;;;23.40;;
28481;SDS011;15703;49.588;6.260;2022-07-23T03:44:31;30.40;;;24.25;;
28481;SDS011;15703;49.588;6.260;2022-07-23T03:46:53;33.15;;;24.70;;
28481;SDS011;15703;49.588;6.260;2022-07-23T03:49:16;32.78;;;26.15;;
28481;SDS011;15703;49.588;6.260;2022-07-23T03:51:40;27.92;;;24.02;;
28481;SDS011;15703;49.588;6.260;2022-07-23T03:54:02;32.75;;;24.77;;
28481;SDS011;15703;49.588;6.260;2022-07-23T03:56:25;31.50;;;25.85;;
28481;SDS011;15703;49.588;6.260;2022-07-23T03:58:48;37.47;;;25.95;;
28481;SDS011;15703;49.588;6.260;2022-07-23T04:01:10;33.47;;;26.10;;
28481;SDS011;15703;49.588;6.260;2022-07-23T04:03:33;31.30;;;25.83;;
28481;SDS011;15703;49.588;6.260;2022-07-23T04:05:55;35.00;;;26.08;;
28481;SDS011;15703;49.588;6.260;2022-07-23T04:08:17;32.05;;;25.77;;
28481;SDS011;15703;49.588;6.260;2022-07-23T04:10:44;30.63;;;24.40;;
28481;SDS011;15703;49.588;6.260;2022-07-23T04:13:07;31.55;;;26.63;;
28481;SDS011;15703;49.588;6.260;2022-07-23T04:15:29;30.08;;;25.42;;
28481;SDS011;15703;49.588;6.260;2022-07-23T04:17:52;29.95;;;25.30;;
28481;SDS011;15703;49.588;6.260;2022-07-23T04:20:16;33.53;;;26.27;;
28481;SDS011;15703;49.588;6.260;2022-07-23T04:22:46;32.13;;;25.75;;
28481;SDS011;15703;49.588;6.260;2022-07-23T04:25:08;36.75;;;26.00;;
28481;SDS011;15703;49.588;6.260;2022-07-23T04:27:30;30.40;;;25.88;;
28481;SDS011;15703;49.588;6.260;2022-07-23T04:29:54;29.92;;;25.23;;
28481;SDS011;15703;49.588;6.260;2022-07-23T04:32:17;32.80;;;25.83;;
28481;SDS011;15703;49.588;6.260;2022-07-23T04:34:39;29.98;;;25.23;;
28481;SDS011;15703;49.588;6.260;2022-07-23T04:37:02;30.77;;;25.35;;
28481;SDS011;15703;49.588;6.260;2022-07-23T04:39:26;32.33;;;25.90;;
28481;SDS011;15703;49.588;6.260;2022-07-23T04:41:48;29.92;;;24.25;;
28481;SDS011;15703;49.588;6.260;2022-07-23T04:44:10;27.83;;;23.60;;
28481;SDS011;15703;49.588;6.260;2022-07-23T04:46:33;28.02;;;23.10;;
28481;SDS011;15703;49.588;6.260;2022-07-23T04:48:55;27.48;;;22.90;;
28481;SDS011;15703;49.588;6.260;2022-07-23T04:51:18;23.83;;;21.33;;
28481;SDS011;15703;49.588;6.260;2022-07-23T04:53:40;23.27;;;20.15;;
28481;SDS011;15703;49.588;6.260;2022-07-23T04:56:04;23.10;;;20.27;;
28481;SDS011;15703;49.588;6.260;2022-07-23T04:58:26;23.90;;;21.25;;
28481;SDS011;15703;49.588;6.260;2022-07-23T05:00:49;22.95;;;20.55;;
28481;SDS011;15703;49.588;6.260;2022-07-23T05:03:11;21.17;;;18.90;;
28481;SDS011;15703;49.588;6.260;2022-07-23T05:05:33;25.65;;;19.30;;
28481;SDS011;15703;49.588;6.260;2022-07-23T05:08:04;21.27;;;18.42;;
28481;SDS011;15703;49.588;6.260;2022-07-23T05:10:27;23.35;;;19.05;;
28481;SDS011;15703;49.588;6.260;2022-07-23T05:12:49;20.63;;;18.42;;
28481;SDS011;15703;49.588;6.260;2022-07-23T05:15:11;18.45;;;16.52;;
28481;SDS011;15703;49.588;6.260;2022-07-23T05:17:34;18.02;;;16.13;;
28481;SDS011;15703;49.588;6.260;2022-07-23T05:20:00;17.38;;;15.00;;
28481;SDS011;15703;49.588;6.260;2022-07-23T05:22:23;16.13;;;14.52;;
28481;SDS011;15703;49.588;6.260;2022-07-23T05:24:46;16.27;;;14.68;;
28481;SDS011;15703;49.588;6.260;2022-07-23T05:27:08;15.02;;;13.43;;
28481;SDS011;15703;49.588;6.260;2022-07-23T05:29:33;20.25;;;14.75;;
28481;SDS011;15703;49.588;6.260;2022-07-23T05:31:56;16.42;;;13.63;;
28481;SDS011;15703;49.588;6.260;2022-07-23T05:34:18;17.50;;;15.35;;
28481;SDS011;15703;49.588;6.260;2022-07-23T05:36:42;14.18;;;12.88;;
28481;SDS011;15703;49.588;6.260;2022-07-23T05:39:04;15.95;;;14.32;;
28481;SDS011;15703;49.588;6.260;2022-07-23T05:41:30;15.63;;;13.75;;
28481;SDS011;15703;49.588;6.260;2022-07-23T05:43:54;14.55;;;12.98;;
28481;SDS011;15703;49.588;6.260;2022-07-23T05:46:18;16.73;;;13.70;;
28481;SDS011;15703;49.588;6.260;2022-07-23T05:48:45;16.27;;;13.82;;
28481;SDS011;15703;49.588;6.260;2022-07-23T05:51:43;16.10;;;14.45;;
28481;SDS011;15703;49.588;6.260;2022-07-23T05:54:07;15.50;;;13.88;;
28481;SDS011;15703;49.588;6.260;2022-07-23T05:56:32;14.90;;;13.32;;
28481;SDS011;15703;49.588;6.260;2022-07-23T05:58:54;16.25;;;14.50;;
28481;SDS011;15703;49.588;6.260;2022-07-23T06:01:17;15.82;;;14.00;;
28481;SDS011;15703;49.588;6.260;2022-07-23T06:03:59;15.88;;;13.93;;
28481;SDS011;15703;49.588;6.260;2022-07-23T06:06:27;18.35;;;15.07;;
28481;SDS011;15703;49.588;6.260;2022-07-23T06:08:50;18.52;;;15.82;;
28481;SDS011;15703;49.588;6.260;2022-07-23T06:11:13;17.50;;;15.05;;
28481;SDS011;15703;49.588;6.260;2022-07-23T06:13:36;18.33;;;14.80;;
28481;SDS011;15703;49.588;6.260;2022-07-23T06:15:58;14.98;;;13.38;;
28481;SDS011;15703;49.588;6.260;2022-07-23T06:18:21;15.73;;;13.95;;
28481;SDS011;15703;49.588;6.260;2022-07-23T06:20:43;19.30;;;15.65;;
28481;SDS011;15703;49.588;6.260;2022-07-23T06:23:11;16.35;;;14.75;;
28481;SDS011;15703;49.588;6.260;2022-07-23T06:25:33;18.90;;;15.88;;
28481;SDS011;15703;49.588;6.260;2022-07-23T06:27:56;15.50;;;13.90;;
28481;SDS011;15703;49.588;6.260;2022-07-23T06:30:20;18.63;;;15.18;;
28481;SDS011;15703;49.588;6.260;2022-07-23T06:32:45;16.02;;;14.32;;
28481;SDS011;15703;49.588;6.260;2022-07-23T06:35:09;15.23;;;13.60;;
28481;SDS011;15703;49.588;6.260;2022-07-23T06:37:31;13.80;;;12.40;;
28481;SDS011;15703;49.588;6.260;2022-07-23T06:39:55;15.30;;;13.75;;
28481;SDS011;15703;49.588;6.260;2022-07-23T06:42:17;16.08;;;14.38;;
28481;SDS011;15703;49.588;6.260;2022-07-23T06:44:45;15.27;;;13.57;;
28481;SDS011;15703;49.588;6.260;2022-07-23T06:47:10;16.58;;;14.32;;
28481;SDS011;15703;49.588;6.260;2022-07-23T06:49:32;17.25;;;13.98;;
28481;SDS011;15703;49.588;6.260;2022-07-23T06:51:54;17.25;;;13.88;;
28481;SDS011;15703;49.588;6.260;2022-07-23T06:54:17;16.48;;;14.77;;
28481;SDS011;15703;49.588;6.260;2022-07-23T06:56:39;15.95;;;14.32;;
28481;SDS011;15703;49.588;6.260;2022-07-23T06:59:02;15.10;;;13.57;;
28481;SDS011;15703;49.588;6.260;2022-07-23T07:01:24;15.32;;;13.55;;
28481;SDS011;15703;49.588;6.260;2022-07-23T07:03:47;15.40;;;13.20;;
28481;SDS011;15703;49.588;6.260;2022-07-23T07:06:09;14.05;;;12.60;;
28481;SDS011;15703;49.588;6.260;2022-07-23T07:08:32;16.20;;;12.93;;
28481;SDS011;15703;49.588;6.260;2022-07-23T07:10:54;15.70;;;13.57;;
28481;SDS011;15703;49.588;6.260;2022-07-23T07:13:16;15.63;;;12.68;;
28481;SDS011;15703;49.588;6.260;2022-07-23T07:15:39;16.75;;;12.85;;
28481;SDS011;15703;49.588;6.260;2022-07-23T07:18:01;15.50;;;12.82;;
28481;SDS011;15703;49.588;6.260;2022-07-23T07:20:23;16.15;;;12.77;;
28481;SDS011;15703;49.588;6.260;2022-07-23T07:22:46;14.52;;;12.77;;
28481;SDS011;15703;49.588;6.260;2022-07-23T07:25:08;14.57;;;12.95;;
28481;SDS011;15703;49.588;6.260;2022-07-23T07:27:31;14.80;;;12.70;;
28481;SDS011;15703;49.588;6.260;2022-07-23T07:29:53;13.75;;;12.35;;
28481;SDS011;15703;49.588;6.260;2022-07-23T07:32:16;15.02;;;12.55;;
28481;SDS011;15703;49.588;6.260;2022-07-23T07:34:58;16.50;;;14.38;;
28481;SDS011;15703;49.588;6.260;2022-07-23T07:37:20;15.05;;;12.38;;
28481;SDS011;15703;49.588;6.260;2022-07-23T07:39:43;13.32;;;11.93;;
28481;SDS011;15703;49.588;6.260;2022-07-23T07:42:05;14.40;;;11.98;;
28481;SDS011;15703;49.588;6.260;2022-07-23T07:44:28;13.57;;;11.27;;
28481;SDS011;15703;49.588;6.260;2022-07-23T07:46:50;14.07;;;12.00;;
28481;SDS011;15703;49.588;6.260;2022-07-23T07:49:13;14.15;;;12.75;;
28481;SDS011;15703;49.588;6.260;2022-07-23T07:51:36;12.82;;;11.00;;
28481;SDS011;15703;49.588;6.260;2022-07-23T07:53:59;13.00;;;11.45;;
28481;SDS011;15703;49.588;6.260;2022-07-23T07:56:22;13.35;;;11.05;;
28481;SDS011;15703;49.588;6.260;2022-07-23T07:58:45;15.18;;;13.13;;
28481;SDS011;15703;49.588;6.260;2022-07-23T08:01:07;12.20;;;10.98;;
28481;SDS011;15703;49.588;6.260;2022-07-23T08:03:29;13.85;;;10.27;;
28481;SDS011;15703;49.588;6.260;2022-07-23T08:05:52;14.73;;;11.73;;
28481;SDS011;15703;49.588;6.260;2022-07-23T08:08:15;12.15;;;10.93;;
28481;SDS011;15703;49.588;6.260;2022-07-23T08:10:37;11.43;;;10.23;;
28481;SDS011;15703;49.588;6.260;2022-07-23T08:12:59;13.55;;;11.23;;
28481;SDS011;15703;49.588;6.260;2022-07-23T08:15:22;11.85;;;10.65;;
28481;SDS011;15703;49.588;6.260;2022-07-23T08:17:45;10.50;;;9.40;;
28481;SDS011;15703;49.588;6.260;2022-07-23T08:20:09;10.55;;;8.98;;
28481;SDS011;15703;49.588;6.260;2022-07-23T08:22:45;10.57;;;8.90;;
28481;SDS011;15703;49.588;6.260;2022-07-23T08:25:08;8.85;;;8.00;;
28481;SDS011;15703;49.588;6.260;2022-07-23T08:27:31;8.98;;;8.18;;
28481;SDS011;15703;49.588;6.260;2022-07-23T08:29:53;8.85;;;8.05;;
28481;SDS011;15703;49.588;6.260;2022-07-23T08:32:15;10.77;;;8.20;;
28481;SDS011;15703;49.588;6.260;2022-07-23T08:34:58;8.35;;;7.55;;
28481;SDS011;15703;49.588;6.260;2022-07-23T08:37:20;11.07;;;9.25;;
28481;SDS011;15703;49.588;6.260;2022-07-23T08:39:42;9.68;;;8.75;;
28481;SDS011;15703;49.588;6.260;2022-07-23T08:42:05;9.07;;;7.85;;
28481;SDS011;15703;49.588;6.260;2022-07-23T08:44:28;9.57;;;8.68;;
28481;SDS011;15703;49.588;6.260;2022-07-23T08:46:50;9.98;;;8.98;;
28481;SDS011;15703;49.588;6.260;2022-07-23T08:49:12;11.20;;;8.38;;
28481;SDS011;15703;49.588;6.260;2022-07-23T08:51:35;9.95;;;9.05;;
28481;SDS011;15703;49.588;6.260;2022-07-23T08:53:58;11.18;;;10.00;;
28481;SDS011;15703;49.588;6.260;2022-07-23T08:56:21;12.20;;;9.73;;
28481;SDS011;15703;49.588;6.260;2022-07-23T08:58:44;10.70;;;9.60;;
28481;SDS011;15703;49.588;6.260;2022-07-23T09:01:06;10.60;;;9.63;;
28481;SDS011;15703;49.588;6.260;2022-07-23T09:03:30;10.50;;;9.48;;
28481;SDS011;15703;49.588;6.260;2022-07-23T09:05:53;9.88;;;8.88;;
28481;SDS011;15703;49.588;6.260;2022-07-23T09:08:18;10.57;;;9.13;;
28481;SDS011;15703;49.588;6.260;2022-07-23T09:13:06;9.95;;;8.95;;
28481;SDS011;15703;49.588;6.260;2022-07-23T09:15:29;10.02;;;9.02;;
28481;SDS011;15703;49.588;6.260;2022-07-23T09:17:51;10.40;;;9.43;;
28481;SDS011;15703;49.588;6.260;2022-07-23T09:20:16;10.02;;;9.02;;
28481;SDS011;15703;49.588;6.260;2022-07-23T09:22:40;11.80;;;9.30;;
28481;SDS011;15703;49.588;6.260;2022-07-23T09:27:45;10.60;;;9.50;;
28481;SDS011;15703;49.588;6.260;2022-07-23T09:30:14;10.27;;;9.27;;
28481;SDS011;15703;49.588;6.260;2022-07-23T09:32:38;10.73;;;8.82;;
28481;SDS011;15703;49.588;6.260;2022-07-23T09:35:00;10.35;;;9.07;;
28481;SDS011;15703;49.588;6.260;2022-07-23T09:37:23;11.23;;;9.63;;
28481;SDS011;15703;49.588;6.260;2022-07-23T09:39:47;11.82;;;10.05;;
28481;SDS011;15703;49.588;6.260;2022-07-23T09:44:35;10.75;;;8.27;;
28481;SDS011;15703;49.588;6.260;2022-07-23T09:47:02;9.63;;;8.05;;
28481;SDS011;15703;49.588;6.260;2022-07-23T09:49:26;8.63;;;7.75;;
28481;SDS011;15703;49.588;6.260;2022-07-23T09:51:57;8.30;;;7.15;;
28481;SDS011;15703;49.588;6.260;2022-07-23T09:54:30;8.48;;;7.55;;
28481;SDS011;15703;49.588;6.260;2022-07-23T09:56:55;8.73;;;7.82;;
28481;SDS011;15703;49.588;6.260;2022-07-23T09:59:17;11.38;;;9.07;;
28481;SDS011;15703;49.588;6.260;2022-07-23T10:01:40;8.45;;;7.57;;
28481;SDS011;15703;49.588;6.260;2022-07-23T10:04:03;8.98;;;8.07;;
28481;SDS011;15703;49.588;6.260;2022-07-23T10:06:45;10.70;;;7.95;;
28481;SDS011;15703;49.588;6.260;2022-07-23T10:09:34;9.20;;;8.30;;
28481;SDS011;15703;49.588;6.260;2022-07-23T10:12:35;10.55;;;8.05;;
28481;SDS011;15703;49.588;6.260;2022-07-23T10:15:08;8.13;;;7.32;;
28481;SDS011;15703;49.588;6.260;2022-07-23T10:17:36;9.85;;;8.77;;
28481;SDS011;15703;49.588;6.260;2022-07-23T10:20:02;9.73;;;7.32;;
28481;SDS011;15703;49.588;6.260;2022-07-23T10:22:32;9.27;;;8.23;;
28481;SDS011;15703;49.588;6.260;2022-07-23T10:25:24;8.10;;;7.35;;
28481;SDS011;15703;49.588;6.260;2022-07-23T10:27:58;8.38;;;7.03;;
28481;SDS011;15703;49.588;6.260;2022-07-23T10:30:41;9.93;;;8.35;;
28481;SDS011;15703;49.588;6.260;2022-07-23T10:36:19;8.85;;;7.82;;
28481;SDS011;15703;49.588;6.260;2022-07-23T10:41:48;9.43;;;7.82;;
28481;SDS011;15703;49.588;6.260;2022-07-23T10:49:38;9.38;;;8.30;;
28481;SDS011;15703;49.588;6.260;2022-07-23T10:54:37;8.38;;;7.57;;
28481;SDS011;15703;49.588;6.260;2022-07-23T10:59:29;7.88;;;7.10;;
28481;SDS011;15703;49.588;6.260;2022-07-23T11:02:20;10.55;;;8.63;;
28481;SDS011;15703;49.588;6.260;2022-07-23T11:04:50;8.43;;;7.63;;
28481;SDS011;15703;49.588;6.260;2022-07-23T11:07:15;7.70;;;7.00;;
28481;SDS011;15703;49.588;6.260;2022-07-23T11:09:45;8.52;;;7.55;;
28481;SDS011;15703;49.588;6.260;2022-07-23T11:17:21;7.53;;;6.80;;
28481;SDS011;15703;49.588;6.260;2022-07-23T11:22:38;10.55;;;9.45;;
28481;SDS011;15703;49.588;6.260;2022-07-23T11:25:01;11.25;;;8.75;;
28481;SDS011;15703;49.588;6.260;2022-07-23T11:27:36;8.27;;;7.45;;
28481;SDS011;15703;49.588;6.260;2022-07-23T11:29:58;9.07;;;7.88;;
28481;SDS011;15703;49.588;6.260;2022-07-23T11:32:26;10.38;;;9.32;;
28481;SDS011;15703;49.588;6.260;2022-07-23T11:34:50;11.23;;;8.85;;
28481;SDS011;15703;49.588;6.260;2022-07-23T11:39:56;8.52;;;7.72;;
28481;SDS011;15703;49.588;6.260;2022-07-23T11:42:18;8.93;;;8.02;;
28481;SDS011;15703;49.588;6.260;2022-07-23T11:44:41;7.88;;;7.10;;
28481;SDS011;15703;49.588;6.260;2022-07-23T11:47:10;8.98;;;7.53;;
28481;SDS011;15703;49.588;6.260;2022-07-23T11:49:35;8.25;;;6.97;;
28481;SDS011;15703;49.588;6.260;2022-07-23T11:52:14;8.63;;;7.53;;
28481;SDS011;15703;49.588;6.260;2022-07-23T11:54:42;10.10;;;7.80;;
28481;SDS011;15703;49.588;6.260;2022-07-23T11:57:08;9.02;;;8.02;;
28481;SDS011;15703;49.588;6.260;2022-07-23T11:59:33;8.52;;;7.10;;
28481;SDS011;15703;49.588;6.260;2022-07-23T12:01:59;10.55;;;7.70;;
28481;SDS011;15703;49.588;6.260;2022-07-23T12:04:21;7.90;;;7.10;;
28481;SDS011;15703;49.588;6.260;2022-07-23T12:06:44;9.63;;;7.45;;
28481;SDS011;15703;49.588;6.260;2022-07-23T12:09:06;15.52;;;7.65;;
28481;SDS011;15703;49.588;6.260;2022-07-23T12:11:29;8.23;;;7.43;;
28481;SDS011;15703;49.588;6.260;2022-07-23T12:13:57;9.57;;;8.07;;
28481;SDS011;15703;49.588;6.260;2022-07-23T12:16:20;8.30;;;7.50;;
28481;SDS011;15703;49.588;6.260;2022-07-23T12:18:43;8.88;;;7.90;;
28481;SDS011;15703;49.588;6.260;2022-07-23T12:21:08;7.93;;;7.15;;
28481;SDS011;15703;49.588;6.260;2022-07-23T12:23:35;8.80;;;7.43;;
28481;SDS011;15703;49.588;6.260;2022-07-23T12:26:02;8.73;;;7.88;;
28481;SDS011;15703;49.588;6.260;2022-07-23T12:28:34;9.38;;;7.80;;
28481;SDS011;15703;49.588;6.260;2022-07-23T12:31:05;8.77;;;7.43;;
28481;SDS011;15703;49.588;6.260;2022-07-23T12:33:36;8.73;;;7.78;;
28481;SDS011;15703;49.588;6.260;2022-07-23T12:36:02;10.85;;;7.50;;
28481;SDS011;15703;49.588;6.260;2022-07-23T12:41:27;7.53;;;6.80;;
28481;SDS011;15703;49.588;6.260;2022-07-23T12:44:14;8.68;;;7.07;;
28481;SDS011;15703;49.588;6.260;2022-07-23T12:46:50;7.70;;;6.95;;
28481;SDS011;15703;49.588;6.260;2022-07-23T12:49:27;7.97;;;7.15;;
28481;SDS011;15703;49.588;6.260;2022-07-23T12:51:51;6.70;;;6.10;;
28481;SDS011;15703;49.588;6.260;2022-07-23T12:54:15;7.65;;;6.95;;
28481;SDS011;15703;49.588;6.260;2022-07-23T12:56:44;8.18;;;7.30;;
28481;SDS011;15703;49.588;6.260;2022-07-23T12:59:10;7.57;;;6.88;;
28481;SDS011;15703;49.588;6.260;2022-07-23T13:01:40;7.50;;;6.72;;
28481;SDS011;15703;49.588;6.260;2022-07-23T13:04:34;7.40;;;6.60;;
28481;SDS011;15703;49.588;6.260;2022-07-23T13:07:00;8.88;;;6.30;;
28481;SDS011;15703;49.588;6.260;2022-07-23T13:09:29;7.50;;;6.72;;
28481;SDS011;15703;49.588;6.260;2022-07-23T13:12:03;7.90;;;6.40;;
28481;SDS011;15703;49.588;6.260;2022-07-23T13:14:27;9.75;;;6.15;;
28481;SDS011;15703;49.588;6.260;2022-07-23T13:16:49;6.70;;;6.10;;
28481;SDS011;15703;49.588;6.260;2022-07-23T13:19:13;6.20;;;5.60;;
28481;SDS011;15703;49.588;6.260;2022-07-23T13:21:40;7.10;;;6.47;;
28481;SDS011;15703;49.588;6.260;2022-07-23T13:24:09;9.27;;;6.68;;
28481;SDS011;15703;49.588;6.260;2022-07-23T13:26:33;6.50;;;5.75;;
28481;SDS011;15703;49.588;6.260;2022-07-23T13:28:58;6.82;;;6.07;;
28481;SDS011;15703;49.588;6.260;2022-07-23T13:31:23;7.30;;;6.20;;
28481;SDS011;15703;49.588;6.260;2022-07-23T13:33:52;7.72;;;5.95;;
28481;SDS011;15703;49.588;6.260;2022-07-23T13:36:18;6.80;;;6.15;;
28481;SDS011;15703;49.588;6.260;2022-07-23T13:38:42;7.57;;;6.32;;
28481;SDS011;15703;49.588;6.260;2022-07-23T13:41:09;6.68;;;5.97;;
28481;SDS011;15703;49.588;6.260;2022-07-23T13:43:39;6.80;;;6.05;;
28481;SDS011;15703;49.588;6.260;2022-07-23T13:46:03;7.18;;;6.40;;
28481;SDS011;15703;49.588;6.260;2022-07-23T13:48:27;6.03;;;5.50;;
28481;SDS011;15703;49.588;6.260;2022-07-23T13:50:51;6.78;;;5.75;;
28481;SDS011;15703;49.588;6.260;2022-07-23T13:53:32;5.82;;;5.32;;
28481;SDS011;15703;49.588;6.260;2022-07-23T13:55:57;5.85;;;4.90;;
28481;SDS011;15703;49.588;6.260;2022-07-23T13:58:23;5.88;;;5.35;;
28481;SDS011;15703;49.588;6.260;2022-07-23T14:00:47;6.45;;;5.78;;
28481;SDS011;15703;49.588;6.260;2022-07-23T14:03:14;7.53;;;5.32;;
28481;SDS011;15703;49.588;6.260;2022-07-23T14:05:38;7.40;;;5.38;;
28481;SDS011;15703;49.588;6.260;2022-07-23T14:08:04;8.40;;;5.95;;
28481;SDS011;15703;49.588;6.260;2022-07-23T14:10:31;6.63;;;5.70;;
28481;SDS011;15703;49.588;6.260;2022-07-23T14:12:59;6.38;;;5.70;;
28481;SDS011;15703;49.588;6.260;2022-07-23T14:15:29;8.30;;;6.38;;
28481;SDS011;15703;49.588;6.260;2022-07-23T14:17:54;6.95;;;6.30;;
28481;SDS011;15703;49.588;6.260;2022-07-23T14:20:20;7.38;;;5.80;;
28481;SDS011;15703;49.588;6.260;2022-07-23T14:22:44;7.18;;;6.55;;
28481;SDS011;15703;49.588;6.260;2022-07-23T14:25:11;8.20;;;6.15;;
28481;SDS011;15703;49.588;6.260;2022-07-23T14:27:41;6.65;;;5.72;;
28481;SDS011;15703;49.588;6.260;2022-07-23T14:30:07;7.63;;;6.75;;
28481;SDS011;15703;49.588;6.260;2022-07-23T14:32:33;7.22;;;6.63;;
28481;SDS011;15703;49.588;6.260;2022-07-23T14:34:56;7.32;;;6.47;;
28481;SDS011;15703;49.588;6.260;2022-07-23T14:37:21;7.28;;;6.57;;
28481;SDS011;15703;49.588;6.260;2022-07-23T14:39:50;7.95;;;6.00;;
28481;SDS011;15703;49.588;6.260;2022-07-23T14:42:14;6.55;;;5.95;;
28481;SDS011;15703;49.588;6.260;2022-07-23T14:44:40;6.60;;;6.00;;
28481;SDS011;15703;49.588;6.260;2022-07-23T14:49:53;6.70;;;6.00;;
28481;SDS011;15703;49.588;6.260;2022-07-23T14:52:19;6.22;;;5.60;;
28481;SDS011;15703;49.588;6.260;2022-07-23T14:54:41;5.70;;;5.20;;
28481;SDS011;15703;49.588;6.260;2022-07-23T14:57:08;8.00;;;5.82;;
28481;SDS011;15703;49.588;6.260;2022-07-23T14:59:37;6.88;;;5.38;;